METAR AND TAF INFORMATION
METAR FOR LIRA
ADDS - METARS form results

(1456 UTC 12 August 2022)
Data provider http://aviationweather.gov/metar/data/
 
METAR text: LIRA 121450Z 22009KT 190V250 9999 FEW040 29/17 Q1012
Conditions at: LIRA (CIAMPINO(IT-AFB/, IT) observed 1450 UTC 12 August 2022
Temperature: 29.0°C (84°F)
Dewpoint: 17.0°C (63°F) [RH = 48%]
Pressure (altimeter): 29.88 inches Hg (1012.0 mb)
Winds: from the SW (220 degrees) at 10 MPH (9 knots; 4.6 m/s)
Visibility: 6 or more miles (10+ km)
Ceiling: at least 12,000 feet AGL
Clouds: few clouds at 4000 feet AGL
Weather: no significant weather observed at this time

METAR text: LIRA 121420Z 24010KT 200V270 9999 FEW030 FEW040TCU 30/16 Q1012
Conditions at: LIRA (CIAMPINO(IT-AFB/, IT) observed 1420 UTC 12 August 2022
Temperature: 30.0°C (86°F)
Dewpoint: 16.0°C (61°F) [RH = 43%]
Pressure (altimeter): 29.88 inches Hg (1012.0 mb)
Winds: from the WSW (240 degrees) at 12 MPH (10 knots; 5.1 m/s)
Visibility: 6 or more miles (10+ km)
Ceiling: at least 12,000 feet AGL
Clouds: few clouds at 3000 feet AGL
few clouds at 4000 feet AGL
Weather: no significant weather observed at this time

Forecast for: LIRA (CIAMPINO(IT-AFB/, IT)
Text: TAF LIRA 121100Z 1212/1312 VRB05KT CAVOK
Forecast period: 1200 UTC 12 August 2022 to 1200 UTC 13 August 2022
Forecast type: FROM: standard forecast or significant change
Winds: variable direction winds at 6 MPH (5 knots; 2.6 m/s)
Visibility: 6 or more miles (10+ km)
Ceiling: unknown
Clouds: missing
Weather: NSW  (no significant weather)
Text: TEMPO 1212/1218 4000 TSRA
Forecast period: 1200 to 1800 UTC 12 August 2022
Forecast type: TEMPORARY: The following changes expected for less than half the time period
Visibility: 2.49 miles (4.01 km)
Ceiling: unknown
Clouds: missing
Weather: TSRA  (rain associated with thunderstorm(s))
Text: TEMPO 1304/1312 3000 TSRA
Forecast period: 0400 to 1200 UTC 13 August 2022
Forecast type: TEMPORARY: The following changes expected for less than half the time period
Visibility: 1.86 miles (2.99 km)
Ceiling: unknown
Clouds: missing
Weather: TSRA  (rain associated with thunderstorm(s))

 AIRPORT MAP

 RUNWAY INFORMATION
Runway 15 Runway length 7242 ft Runway width 154 ft
Runway elevation 341 ft Runway displaced threshold 0 ft Runway heading 153
Runway 33 Runway length 7242 ft Runway width 154 ft
Runway elevation 427 ft Runway displaced threshold 0 ft Runway heading 333

 AIRPORT FREQUENCIES
Type ARR Name ROMA ARR Frequency 119.2 MHZ
Type CLD Name CLNC DEL Frequency 119.4 MHZ
Type DIR Name ROMA DIREC Frequency 119.2 MHZ
Type GND Name GND Frequency 121.75 MHZ
Type TWR Name TWR Frequency 120.5 MHZ

 AIRPORT NEAR NAVIGATION AIDS
Type NDB Name Ciampino Frequency 412 KHZ
Type VOR-DME Name Roma Frequency 110800 KHZ